Hauptseite
METAR-TAF:

METAR-TAF

Flughäfen :

Edinburgh, Schottland

Flughafen Edinburgh

Breite: 55-57N, Länge: 003-21W, Höhe: 41 m

Beobachtung

Neuester Wetterbericht von vor 11 Minuten, um 09:50 UTC
Wind 6 kt aus Ost, variierte zwischen Nord/Nordost und Südost
Temperatur 4°C
Luftfeuchtigkeit 70%
Luftdruck 1031 hPa
Sichtweite 10 km oder mehr
keine Wolken unter 1500 m und keine Kumulonimbus oder Gewitterwolken

METAR: EGPH 250950Z 10006KT 020V130 CAVOK 04/M01 Q1031

Zeit: 10:01 (10:01 UTC)

Prognose

Neuester Wetterbericht von vor 5 Stunden und 7 Minuten, um 04:54 UTC
Gültige Prognose vom 25 um 06 UTC bis 26 um 06 UTC
Wind 8 kt aus Ost
Sichtweite 10 km oder mehr
Leicht bewölkt in der Höhe von 3500 ft

TAF: EGPH 250454Z 2506/2606 09008KT 9999 FEW035

Wetterbeobachtungen und Prognosen von mehr als 4000 Flughäfen (METAR und TAF Bericht).

Die verfügbaren Stationen werden durch gelbe und rote Markierungen auf der Karte dargestellt.

Führen Sie die Maus auf sie, um den Namen der Station zu sehen.

Darauf klicken, um die Beobachtung von Wetterbeobachtungen und Prognosen zu sehen.

Um die Karte zu ändern : klicken Sie auf den grünen Tasten mit einem schwarzen Kreuz Zum Vergrößern, auf den grünen Button mit einem Gedankenstrich zu verkleinern, oder auf die grünen Pfeile für benachbarte Karten.


METAR-TAF: